createdAt,value
2022-12-24T00:01:38.799Z,100092.41
2022-12-24T00:04:07.747Z,100096.88
2022-12-24T00:06:36.629Z,100111.84
2022-12-24T00:09:05.700Z,100108.53
2022-12-24T00:11:34.365Z,100109.63
2022-12-24T00:14:03.941Z,100116.84
2022-12-24T00:16:32.654Z,100113.53
2022-12-24T00:19:00.902Z,100118.91
2022-12-24T00:21:29.414Z,100124.34
2022-12-24T00:23:57.750Z,100120.81
2022-12-24T00:26:26.082Z,100119.81
2022-12-24T00:28:55.073Z,100129.31
2022-12-24T00:31:24.847Z,100123.91
2022-12-24T00:33:53.420Z,100138.84
2022-12-24T00:36:22.802Z,100139.81
2022-12-24T00:38:51.404Z,100141.59
2022-12-24T00:41:26.426Z,100132.13
2022-12-24T00:43:56.666Z,100144.44
2022-12-24T00:46:27.921Z,100148.91
2022-12-24T00:48:57.236Z,100127.72
2022-12-24T00:51:26.374Z,100133.59
2022-12-24T00:53:55.033Z,100134.19
2022-12-24T00:56:24.083Z,100140.19
2022-12-24T00:58:53.510Z,100155.09
2022-12-24T01:01:23.326Z,100152.34
2022-12-24T01:04:14.120Z,100147.06
2022-12-24T01:06:42.246Z,100161.75
2022-12-24T01:09:10.755Z,100178.28
2022-12-24T01:11:39.775Z,100170.25
2022-12-24T01:14:08.357Z,100168.50
2022-12-24T01:16:36.773Z,100174.75
2022-12-24T01:19:06.545Z,100173.13
2022-12-24T01:21:34.815Z,100169.81
2022-12-24T01:24:03.348Z,100180.44
2022-12-24T01:26:32.195Z,100191.16
2022-12-24T01:29:01.255Z,100200.88
2022-12-24T01:31:29.849Z,100200.16
2022-12-24T01:33:58.747Z,100202.81
2022-12-24T01:36:28.612Z,100215.09
2022-12-24T01:38:57.171Z,100207.31
2022-12-24T01:41:44.085Z,100217.94
2022-12-24T01:44:21.854Z,100223.28
2022-12-24T01:46:54.794Z,100228.75
2022-12-24T01:49:23.689Z,100232.44
2022-12-24T01:52:00.117Z,100237.84
2022-12-24T01:54:33.731Z,100248.44
2022-12-24T01:57:08.726Z,100255.50
2022-12-24T01:59:38.575Z,100248.59
2022-12-24T02:02:07.523Z,100250.53
2022-12-24T02:04:41.349Z,100253.09
2022-12-24T02:07:11.336Z,100251.47
2022-12-24T02:09:41.122Z,100268.94
2022-12-24T02:12:09.865Z,100259.34
2022-12-24T02:14:39.169Z,100266.28
2022-12-24T02:17:19.906Z,100265.44
2022-12-24T02:20:19.931Z,100267.03
2022-12-24T02:23:27.890Z,100271.25
2022-12-24T02:26:27.025Z,100267.59
2022-12-24T02:29:27.047Z,100262.34
2022-12-24T02:32:03.641Z,100262.25
2022-12-24T02:34:37.452Z,100261.31
2022-12-24T02:37:13.913Z,100258.63
2022-12-24T02:39:47.811Z,100262.16
2022-12-24T02:42:20.207Z,100267.50
2022-12-24T02:44:55.447Z,100269.38
2022-12-24T02:47:29.033Z,100261.56
2022-12-24T02:49:57.461Z,100267.69
2022-12-24T02:52:36.191Z,100266.00
2022-12-24T02:55:08.971Z,100262.44
2022-12-24T02:58:11.729Z,100269.53
2022-12-24T03:00:55.462Z,100279.84
2022-12-24T03:03:39.828Z,100286.78
2022-12-24T03:06:17.608Z,100284.03
2022-12-24T03:08:52.739Z,100284.78
2022-12-24T03:11:21.359Z,100282.97
2022-12-24T03:13:51.602Z,100292.56
2022-12-24T03:16:25.956Z,100301.28
2022-12-24T03:18:58.682Z,100309.28
2022-12-24T03:21:32.098Z,100316.38
2022-12-24T03:24:01.207Z,100306.84
2022-12-24T03:26:32.343Z,100310.28
2022-12-24T03:29:01.375Z,100305.91
2022-12-24T03:31:43.346Z,100320.00
2022-12-24T03:34:14.946Z,100332.34
2022-12-24T03:36:44.062Z,100323.72
2022-12-24T03:39:12.809Z,100329.06
2022-12-24T03:41:41.405Z,100332.66
2022-12-24T03:44:10.237Z,100324.75
2022-12-24T03:46:38.886Z,100319.53
2022-12-24T03:49:07.413Z,100327.25
2022-12-24T03:51:37.144Z,100307.03
2022-12-24T03:54:05.775Z,100321.75
2022-12-24T03:56:34.292Z,100320.81
2022-12-24T03:59:02.819Z,100332.97
2022-12-24T04:01:31.187Z,100333.84
2022-12-24T04:03:59.517Z,100328.59
2022-12-24T04:06:28.065Z,100334.75
2022-12-24T04:08:59.208Z,100347.97
2022-12-24T04:11:27.740Z,100348.91
2022-12-24T04:13:55.935Z,100341.09
2022-12-24T04:16:24.651Z,100342.91
2022-12-24T04:18:53.323Z,100342.94
2022-12-24T04:21:21.964Z,100350.06
2022-12-24T04:23:51.149Z,100349.41
2022-12-24T04:26:20.843Z,100357.41
2022-12-24T04:28:49.373Z,100352.25
2022-12-24T04:31:18.970Z,100360.16
2022-12-24T04:33:48.051Z,100357.56
2022-12-24T04:36:18.721Z,100354.09
2022-12-24T04:38:48.298Z,100345.38
2022-12-24T04:41:24.435Z,100356.72
2022-12-24T04:43:54.728Z,100360.19
2022-12-24T04:46:25.474Z,100370.66
2022-12-24T04:48:55.362Z,100365.31
2022-12-24T04:51:25.535Z,100374.88
2022-12-24T04:53:54.568Z,100363.41
2022-12-24T04:56:27.005Z,100358.06
2022-12-24T04:58:55.994Z,100355.50
2022-12-24T05:01:27.445Z,100355.50
2022-12-24T05:03:56.908Z,100353.78
2022-12-24T05:06:28.290Z,100350.34
2022-12-24T05:08:57.446Z,100348.63
2022-12-24T05:11:28.652Z,100346.97
2022-12-24T05:13:57.510Z,100350.53
2022-12-24T05:16:26.288Z,100348.00
2022-12-24T05:18:55.522Z,100341.06
2022-12-24T05:21:25.591Z,100359.50
2022-12-24T05:24:11.178Z,100363.88
2022-12-24T05:26:45.557Z,100363.09
2022-12-24T05:29:14.650Z,100363.19
2022-12-24T05:31:45.104Z,100359.84
2022-12-24T05:34:14.541Z,100359.94
2022-12-24T05:36:43.740Z,100359.13
2022-12-24T05:39:16.381Z,100357.47
2022-12-24T05:41:48.065Z,100369.78
2022-12-24T05:44:17.459Z,100377.75
2022-12-24T05:46:46.142Z,100381.25
2022-12-24T05:49:15.128Z,100379.53
2022-12-24T05:51:44.275Z,100375.25
2022-12-24T05:54:12.845Z,100386.66
2022-12-24T05:56:41.386Z,100384.13
2022-12-24T05:59:11.186Z,100382.44
2022-12-24T06:01:39.794Z,100386.84
2022-12-24T06:04:08.767Z,100386.84
2022-12-24T06:06:37.416Z,100386.00
2022-12-24T06:09:06.194Z,100386.91
2022-12-24T06:11:34.697Z,100405.25
2022-12-24T06:14:04.537Z,100401.75
2022-12-24T06:16:34.265Z,100400.88
2022-12-24T06:19:02.550Z,100396.44
2022-12-24T06:21:31.456Z,100406.03
2022-12-24T06:24:01.135Z,100406.03
2022-12-24T06:26:29.666Z,100409.56
2022-12-24T06:29:01.543Z,100410.50
2022-12-24T06:31:30.118Z,100411.47
2022-12-24T06:33:59.743Z,100422.94
2022-12-24T06:36:28.001Z,100418.69
2022-12-24T06:38:56.991Z,100412.66
2022-12-24T06:41:25.933Z,100424.09
2022-12-24T06:43:54.915Z,100421.63
2022-12-24T06:46:23.675Z,100430.41
2022-12-24T06:48:52.313Z,100433.09
2022-12-24T06:51:22.273Z,100436.59
2022-12-24T06:53:51.548Z,100433.19
2022-12-24T06:56:21.829Z,100438.41
2022-12-24T06:58:50.502Z,100439.22
2022-12-24T07:01:21.196Z,100447.00
2022-12-24T07:03:50.041Z,100455.69
2022-12-24T07:06:26.055Z,100454.75
2022-12-24T07:08:54.738Z,100452.06
2022-12-24T07:11:24.360Z,100453.75
2022-12-24T07:13:52.940Z,100458.91
2022-12-24T07:16:21.561Z,100454.38
2022-12-24T07:18:50.299Z,100453.41
2022-12-24T07:21:18.826Z,100462.09
2022-12-24T07:23:48.436Z,100462.00
2022-12-24T07:26:16.990Z,100467.22
2022-12-24T07:28:45.481Z,100459.22
2022-12-24T07:31:13.728Z,100469.59
2022-12-24T07:33:42.284Z,100475.47
2022-12-24T07:36:16.962Z,100469.22
2022-12-24T07:38:45.128Z,100461.34
2022-12-24T07:41:15.053Z,100459.56
2022-12-24T07:43:43.592Z,100452.44
2022-12-24T07:46:12.547Z,100469.81
2022-12-24T07:48:41.239Z,100462.78
2022-12-24T07:51:09.767Z,100472.28
2022-12-24T07:53:38.106Z,100479.09
2022-12-24T07:56:12.511Z,100483.41
2022-12-24T07:58:43.104Z,100492.03
2022-12-24T08:01:13.653Z,100486.69
2022-12-24T08:03:42.397Z,100498.91
2022-12-24T08:06:11.642Z,100495.38
2022-12-24T08:08:40.366Z,100503.19
2022-12-24T08:11:09.052Z,100498.72
2022-12-24T08:13:37.590Z,100503.00
2022-12-24T08:16:08.132Z,100510.81
2022-12-24T08:18:36.703Z,100509.84
2022-12-24T08:21:07.871Z,100511.47
2022-12-24T08:23:36.531Z,100508.72
2022-12-24T08:26:07.523Z,100508.63
2022-12-24T08:28:35.823Z,100514.66
2022-12-24T08:31:06.193Z,100510.16
2022-12-24T08:33:34.917Z,100496.94
2022-12-24T08:36:04.667Z,100503.00
2022-12-24T08:38:33.595Z,100497.66
2022-12-24T08:41:01.887Z,100502.84
2022-12-24T08:43:30.721Z,100501.00
2022-12-24T08:46:05.215Z,100510.63
2022-12-24T08:48:35.348Z,100507.91
2022-12-24T08:51:09.629Z,100518.22
2022-12-24T08:53:38.615Z,100510.78
2022-12-24T08:56:09.779Z,100518.88
2022-12-24T08:58:38.639Z,100526.25
2022-12-24T09:01:14.473Z,100531.09
2022-12-24T09:03:44.825Z,100526.41
2022-12-24T09:06:13.801Z,100523.28
2022-12-24T09:08:42.452Z,100525.28
2022-12-24T09:11:13.307Z,100528.16
2022-12-24T09:13:42.203Z,100540.09
2022-12-24T09:16:10.895Z,100568.03
2022-12-24T09:18:39.865Z,100548.38
2022-12-24T09:21:14.955Z,100559.69
2022-12-24T09:23:45.391Z,100566.75
2022-12-24T09:26:16.655Z,100569.59
2022-12-24T09:28:45.318Z,100577.69
2022-12-24T09:31:14.745Z,100569.88
2022-12-24T09:33:45.624Z,100580.50
2022-12-24T09:36:16.256Z,100582.47
2022-12-24T09:38:44.922Z,100587.94
2022-12-24T09:41:15.996Z,100584.56
2022-12-24T09:43:50.925Z,100604.50
2022-12-24T09:46:25.191Z,100600.47
2022-12-24T09:48:59.243Z,100597.69
2022-12-24T09:51:35.119Z,100604.78
2022-12-24T09:54:08.747Z,100609.94
2022-12-24T09:56:42.078Z,100610.53
2022-12-24T09:59:15.829Z,100604.00
2022-12-24T10:01:44.850Z,100622.53
2022-12-24T10:04:17.439Z,100611.34
2022-12-24T10:06:55.130Z,100627.25
2022-12-24T10:09:32.584Z,100628.22
2022-12-24T10:12:10.349Z,100633.63
2022-12-24T10:15:00.722Z,100625.84
2022-12-24T10:17:51.184Z,100651.38
2022-12-24T10:20:35.396Z,100630.22
2022-12-24T10:23:14.853Z,100638.03
2022-12-24T10:25:50.712Z,100627.56
2022-12-24T10:28:29.200Z,100635.63
2022-12-24T10:31:04.388Z,100650.56
2022-12-24T10:33:39.324Z,100644.47
2022-12-24T10:36:12.499Z,100643.81
2022-12-24T10:38:42.274Z,100634.13
2022-12-24T10:41:11.275Z,100645.50
2022-12-24T10:43:42.313Z,100639.38
2022-12-24T10:46:22.047Z,100640.22
2022-12-24T10:48:56.129Z,100638.41
2022-12-24T10:51:34.009Z,100643.69
2022-12-24T10:54:13.196Z,100648.94
2022-12-24T10:56:43.770Z,100662.13
2022-12-24T10:59:28.090Z,100658.81
2022-12-24T11:01:58.429Z,100652.69
2022-12-24T11:04:29.541Z,100645.81
2022-12-24T11:06:59.942Z,100655.47
2022-12-24T11:09:33.186Z,100647.72
2022-12-24T11:12:08.940Z,100661.69
2022-12-24T11:14:41.035Z,100641.59
2022-12-24T11:17:19.787Z,100640.75
2022-12-24T11:19:51.628Z,100653.09
2022-12-24T11:22:24.647Z,100644.28
2022-12-24T11:25:04.167Z,100654.78
2022-12-24T11:27:41.103Z,100651.19
2022-12-24T11:30:27.587Z,100653.81
2022-12-24T11:33:22.511Z,100650.34
2022-12-24T11:36:01.491Z,100645.06
2022-12-24T11:38:32.808Z,100642.47
2022-12-24T11:41:08.029Z,100634.56
2022-12-24T11:43:46.702Z,100646.00
2022-12-24T11:46:22.747Z,100651.38
2022-12-24T11:49:14.168Z,100649.75
2022-12-24T11:52:03.731Z,100640.47
2022-12-24T11:54:40.175Z,100641.56
2022-12-24T11:57:13.796Z,100653.88
2022-12-24T11:59:47.258Z,100645.06
2022-12-24T12:02:23.414Z,100638.94
2022-12-24T12:04:58.225Z,100634.56
2022-12-24T12:07:30.905Z,100641.66
2022-12-24T12:10:05.351Z,100636.50
2022-12-24T12:12:40.931Z,100638.22
2022-12-24T12:15:15.909Z,100641.75
2022-12-24T12:17:50.481Z,100640.75
2022-12-24T12:20:24.467Z,100644.19
2022-12-24T12:23:01.744Z,100643.16
2022-12-24T12:25:38.302Z,100645.59
2022-12-24T12:28:23.297Z,100639.41
2022-12-24T12:31:03.378Z,100643.78
2022-12-24T12:33:40.433Z,100641.94
2022-12-24T12:36:11.427Z,100644.69
2022-12-24T12:38:41.187Z,100646.63
2022-12-24T12:41:29.154Z,100646.91
2022-12-24T12:44:42.149Z,100640.09
2022-12-24T12:47:56.485Z,100651.69
2022-12-24T12:50:32.973Z,100645.63
2022-12-24T12:53:23.194Z,100636.00
2022-12-24T12:55:58.818Z,100648.16
2022-12-24T12:58:33.188Z,100633.22
2022-12-24T13:01:11.432Z,100641.06
2022-12-24T13:04:37.026Z,100641.91
2022-12-24T13:07:57.844Z,100654.28
2022-12-24T13:10:44.578Z,100656.09
2022-12-24T13:13:45.290Z,100654.38
2022-12-24T13:16:38.197Z,100663.16
2022-12-24T13:19:24.724Z,100666.69
2022-12-24T13:21:56.606Z,100668.50
2022-12-24T13:24:28.846Z,100673.94
2022-12-24T13:27:07.234Z,100663.72
2022-12-24T13:29:52.432Z,100660.53
2022-12-24T13:32:47.215Z,100663.50
2022-12-24T13:35:37.531Z,100668.13
2022-12-24T13:38:40.114Z,100660.38
2022-12-24T13:41:56.871Z,100665.69
2022-12-24T13:44:32.802Z,100660.53
2022-12-24T13:47:32.008Z,100659.59
2022-12-24T13:50:23.639Z,100675.38
2022-12-24T13:52:54.073Z,100668.31
2022-12-24T13:55:23.301Z,100661.28
2022-12-24T13:57:59.033Z,100667.41
2022-12-24T14:00:42.090Z,100661.28
2022-12-24T14:03:30.369Z,100663.91
2022-12-24T14:06:03.790Z,100671.81
2022-12-24T14:08:39.882Z,100677.16
2022-12-24T14:11:13.160Z,100674.69
2022-12-24T14:14:26.836Z,100673.91
2022-12-24T14:16:59.304Z,100680.13
2022-12-24T14:19:37.286Z,100686.41
2022-12-24T14:22:23.011Z,100692.84
2022-12-24T14:24:54.525Z,100697.47
2022-12-24T14:27:30.341Z,100698.53
2022-12-24T14:30:05.720Z,100691.66
2022-12-24T14:32:39.258Z,100691.91
2022-12-24T14:35:10.696Z,100693.03
2022-12-24T14:37:41.167Z,100693.31
2022-12-24T14:40:17.410Z,100700.53
2022-12-24T14:43:00.026Z,100697.13
2022-12-24T14:45:38.631Z,100695.44
2022-12-24T14:48:18.224Z,100704.25
2022-12-24T14:51:06.061Z,100698.22
2022-12-24T14:53:56.622Z,100705.25
2022-12-24T14:56:25.503Z,100696.53
2022-12-24T14:58:54.001Z,100695.59
2022-12-24T15:01:25.645Z,100702.59
2022-12-24T15:04:06.504Z,100702.59
2022-12-24T15:06:38.105Z,100703.47
2022-12-24T15:09:14.514Z,100708.66
2022-12-24T15:11:45.872Z,100716.53
2022-12-24T15:14:15.102Z,100723.50
2022-12-24T15:16:45.012Z,100721.75
2022-12-24T15:19:23.404Z,100724.38
2022-12-24T15:21:52.261Z,100724.38
2022-12-24T15:24:32.279Z,100733.16
2022-12-24T15:27:02.955Z,100744.50
2022-12-24T15:29:34.400Z,100747.13
2022-12-24T15:32:04.833Z,100743.63
2022-12-24T15:34:40.914Z,100747.13
2022-12-24T15:37:19.229Z,100748.91
2022-12-24T15:39:56.525Z,100744.59
2022-12-24T15:42:26.409Z,100749.03
2022-12-24T15:45:03.625Z,100747.31
2022-12-24T15:47:38.143Z,100759.59
2022-12-24T15:50:15.523Z,100757.06
2022-12-24T15:52:44.795Z,100754.44
2022-12-24T15:55:29.333Z,100757.13
2022-12-24T15:57:57.716Z,100754.50
2022-12-24T16:00:31.054Z,100753.59
2022-12-24T16:03:13.059Z,100752.72
2022-12-24T16:05:41.989Z,100752.72
2022-12-24T16:08:34.147Z,100755.41
2022-12-24T16:11:17.453Z,100753.72
2022-12-24T16:14:07.804Z,100764.22
2022-12-24T16:16:40.033Z,100759.88
2022-12-24T16:19:17.185Z,100766.03
2022-12-24T16:21:46.241Z,100768.66
2022-12-24T16:24:19.230Z,100760.84
2022-12-24T16:26:49.025Z,100761.72
2022-12-24T16:29:19.442Z,100759.94
2022-12-24T16:31:51.358Z,100761.66
2022-12-24T16:34:21.590Z,100747.69
2022-12-24T16:36:49.928Z,100749.47
2022-12-24T16:39:25.284Z,100750.38
2022-12-24T16:42:19.812Z,100750.38
2022-12-24T16:44:49.015Z,100750.38
2022-12-24T16:47:22.657Z,100758.22
2022-12-24T16:49:52.499Z,100763.50
2022-12-24T16:52:23.379Z,100763.47
2022-12-24T16:54:51.989Z,100767.91
2022-12-24T16:57:22.064Z,100770.53
2022-12-24T16:59:52.388Z,100771.47
2022-12-24T17:02:23.063Z,100778.53
2022-12-24T17:04:51.861Z,100778.59
2022-12-24T17:07:22.221Z,100784.78
2022-12-24T17:09:50.795Z,100787.44
2022-12-24T17:12:21.613Z,100790.97
2022-12-24T17:14:50.400Z,100784.03
2022-12-24T17:17:24.519Z,100777.03
2022-12-24T17:19:53.067Z,100779.69
2022-12-24T17:22:21.626Z,100780.56
2022-12-24T17:24:49.902Z,100786.69
2022-12-24T17:27:18.512Z,100796.31
2022-12-24T17:29:48.163Z,100791.03
2022-12-24T17:32:16.875Z,100787.50
2022-12-24T17:34:45.219Z,100787.50
2022-12-24T17:37:13.616Z,100791.03
2022-12-24T17:39:41.826Z,100794.53
2022-12-24T17:42:10.123Z,100804.16
2022-12-24T17:44:38.887Z,100805.91
2022-12-24T17:47:08.579Z,100796.28
2022-12-24T17:49:36.878Z,100801.53
2022-12-24T17:52:05.912Z,100812.00
2022-12-24T17:54:34.158Z,100802.44
2022-12-24T17:57:02.825Z,100795.44
2022-12-24T17:59:31.066Z,100802.38
2022-12-24T18:01:59.569Z,100797.13
2022-12-24T18:04:29.334Z,100790.13
2022-12-24T18:07:02.118Z,100790.13
2022-12-24T18:09:31.485Z,100779.66
2022-12-24T18:11:59.819Z,100784.03
2022-12-24T18:14:28.539Z,100789.25
2022-12-24T18:16:57.074Z,100777.03
2022-12-24T18:19:25.588Z,100782.34
2022-12-24T18:21:55.161Z,100781.53
2022-12-24T18:24:23.880Z,100778.91
2022-12-24T18:26:52.517Z,100777.22
2022-12-24T18:29:21.076Z,100786.00
2022-12-24T18:31:49.653Z,100790.44
2022-12-24T18:34:18.320Z,100793.06
2022-12-24T18:36:52.915Z,100778.25
2022-12-24T18:39:24.826Z,100785.31
2022-12-24T18:41:53.426Z,100786.22
2022-12-24T18:44:25.232Z,100781.03
2022-12-24T18:46:54.476Z,100784.53
2022-12-24T18:49:23.049Z,100790.69
2022-12-24T18:51:51.317Z,100804.69
2022-12-24T18:54:19.847Z,100807.31
2022-12-24T18:56:51.665Z,100802.06
2022-12-24T18:59:20.282Z,100791.59
2022-12-24T19:01:48.965Z,100799.44
2022-12-24T19:04:17.849Z,100807.31
2022-12-24T19:06:52.668Z,100809.03
2022-12-24T19:09:22.029Z,100814.25
2022-12-24T19:11:52.002Z,100810.72
2022-12-24T19:14:21.087Z,100817.72
2022-12-24T19:16:49.776Z,100828.16
2022-12-24T19:19:23.799Z,100824.63
2022-12-24T19:21:52.417Z,100831.63
2022-12-24T19:24:20.941Z,100829.00
2022-12-24T19:26:51.025Z,100822.00
2022-12-24T19:29:19.664Z,100824.59
2022-12-24T19:31:48.076Z,100827.19
2022-12-24T19:34:16.766Z,100834.19
2022-12-24T19:36:46.681Z,100834.19
2022-12-24T19:39:15.412Z,100829.81
2022-12-24T19:41:43.850Z,100836.81
2022-12-24T19:44:13.441Z,100829.00
2022-12-24T19:46:41.920Z,100836.88
2022-12-24T19:49:13.229Z,100834.31
2022-12-24T19:51:41.889Z,100836.91
2022-12-24T19:54:18.607Z,100840.41
2022-12-24T19:56:48.064Z,100847.34
2022-12-24T19:59:18.015Z,100854.34
2022-12-24T20:01:47.128Z,100863.00
2022-12-24T20:04:18.360Z,100863.00
2022-12-24T20:06:46.936Z,100868.22
2022-12-24T20:09:15.179Z,100871.66
2022-12-24T20:11:43.756Z,100880.38
2022-12-24T20:14:13.099Z,100883.84
2022-12-24T20:16:42.798Z,100876.84
2022-12-24T20:19:15.510Z,100881.19
2022-12-24T20:21:44.114Z,100873.31
2022-12-24T20:24:12.649Z,100872.41
2022-12-24T20:26:41.370Z,100868.91
2022-12-24T20:29:12.053Z,100864.53
2022-12-24T20:31:42.704Z,100865.44
2022-12-24T20:34:12.155Z,100865.50
2022-12-24T20:36:40.713Z,100852.47
2022-12-24T20:39:09.319Z,100842.03
2022-12-24T20:41:37.586Z,100842.06
2022-12-24T20:44:06.048Z,100846.47
2022-12-24T20:46:35.447Z,100848.25
2022-12-24T20:49:05.602Z,100843.91
2022-12-24T20:51:34.153Z,100841.34
2022-12-24T20:54:02.875Z,100844.03
2022-12-24T20:56:31.816Z,100847.53
2022-12-24T20:59:01.334Z,100842.28
2022-12-24T21:01:30.595Z,100841.41
2022-12-24T21:04:04.260Z,100843.19
2022-12-24T21:06:34.895Z,100858.00
2022-12-24T21:09:03.780Z,100858.00
2022-12-24T21:11:49.361Z,100855.38
2022-12-24T21:14:20.578Z,100858.00
2022-12-24T21:16:49.376Z,100849.28
2022-12-24T21:19:20.699Z,100857.13
2022-12-24T21:21:50.620Z,100856.28
2022-12-24T21:24:19.184Z,100852.75
2022-12-24T21:26:47.679Z,100851.94
2022-12-24T21:29:16.771Z,100850.19
2022-12-24T21:31:45.292Z,100845.84
2022-12-24T21:34:13.514Z,100847.56
2022-12-24T21:36:42.633Z,100849.31
2022-12-24T21:39:12.245Z,100842.28
2022-12-24T21:41:40.921Z,100842.28
2022-12-24T21:44:09.468Z,100838.78
2022-12-24T21:46:38.076Z,100838.78
2022-12-24T21:49:24.566Z,100844.03
2022-12-24T21:51:52.847Z,100839.66
2022-12-24T21:54:26.762Z,100830.03
2022-12-24T21:57:15.279Z,100826.56
2022-12-24T21:59:44.213Z,100826.56
2022-12-24T22:02:14.128Z,100819.59
2022-12-24T22:04:43.803Z,100812.59
2022-12-24T22:07:39.748Z,100817.00
2022-12-24T22:10:28.918Z,100810.91
2022-12-24T22:12:59.597Z,100809.19
2022-12-24T22:15:28.833Z,100804.84
2022-12-24T22:17:57.361Z,100804.00
2022-12-24T22:20:25.812Z,100811.94
2022-12-24T22:22:54.437Z,100811.94
2022-12-24T22:25:24.065Z,100818.13
2022-12-24T22:27:53.199Z,100817.28
2022-12-24T22:30:21.717Z,100815.56
2022-12-24T22:32:50.246Z,100817.31
2022-12-24T22:35:18.712Z,100815.59
2022-12-24T22:37:47.326Z,100822.56
2022-12-24T22:40:16.361Z,100821.72
2022-12-24T22:42:45.960Z,100829.56
2022-12-24T22:45:20.200Z,100829.56
2022-12-24T22:47:51.084Z,100832.13
2022-12-24T22:50:19.716Z,100832.09
2022-12-24T22:52:47.945Z,100832.09
2022-12-24T22:55:16.541Z,100833.84
2022-12-24T22:57:46.187Z,100831.16
2022-12-24T23:00:37.436Z,100840.78
2022-12-24T23:03:06.473Z,100833.84
2022-12-24T23:05:35.269Z,100844.31
2022-12-24T23:08:04.297Z,100839.06
2022-12-24T23:10:32.873Z,100837.31
2022-12-24T23:13:19.859Z,100832.97
2022-12-24T23:15:48.582Z,100832.13
2022-12-24T23:18:17.393Z,100828.66
2022-12-24T23:20:46.498Z,100819.09
2022-12-24T23:23:15.727Z,100821.72
2022-12-24T23:25:44.372Z,100826.94
2022-12-24T23:28:14.310Z,100833.94
2022-12-24T23:30:42.937Z,100828.75
2022-12-24T23:33:11.476Z,100837.47
2022-12-24T23:35:39.750Z,100838.34
2022-12-24T23:38:08.262Z,100840.97
2022-12-24T23:40:36.581Z,100837.47
2022-12-24T23:43:05.108Z,100840.97
2022-12-24T23:45:34.910Z,100840.09
2022-12-24T23:48:03.577Z,100837.53
2022-12-24T23:50:32.181Z,100841.00
2022-12-24T23:53:00.717Z,100839.25
2022-12-24T23:55:29.267Z,100844.50
2022-12-24T23:57:57.807Z,100854.97
